createdAt,value
2023-02-09T00:01:30.167Z,32.77
2023-02-09T00:04:00.065Z,28.67
2023-02-09T00:06:30.051Z,27.90
2023-02-09T00:08:58.134Z,28.77
2023-02-09T00:11:46.226Z,27.60
2023-02-09T00:14:14.760Z,27.97
2023-02-09T00:16:41.903Z,28.43
2023-02-09T00:19:08.755Z,32.10
2023-02-09T00:21:35.560Z,30.23
2023-02-09T00:24:02.488Z,27.23
2023-02-09T00:26:29.328Z,29.90
2023-02-09T00:28:56.108Z,29.10
2023-02-09T00:31:23.094Z,27.93
2023-02-09T00:33:49.952Z,28.50
2023-02-09T00:36:16.886Z,28.40
2023-02-09T00:38:44.322Z,28.07
2023-02-09T00:41:12.193Z,29.47
2023-02-09T00:43:39.292Z,27.77
2023-02-09T00:46:06.387Z,30.37
2023-02-09T00:48:33.467Z,29.60
2023-02-09T00:51:00.971Z,32.43
2023-02-09T00:53:28.137Z,29.63
2023-02-09T00:55:54.938Z,33.53
2023-02-09T00:58:21.782Z,28.83
2023-02-09T01:00:49.764Z,34.57
2023-02-09T01:03:18.207Z,27.97
2023-02-09T01:05:44.950Z,34.03
2023-02-09T01:08:11.993Z,29.73
2023-02-09T01:10:39.116Z,30.60
2023-02-09T01:13:06.034Z,27.93
2023-02-09T01:15:33.068Z,29.97
2023-02-09T01:18:00.023Z,33.47
2023-02-09T01:20:28.254Z,28.53
2023-02-09T01:22:55.177Z,31.27
2023-02-09T01:25:21.950Z,28.80
2023-02-09T01:27:48.867Z,30.13
2023-02-09T01:30:16.328Z,30.00
2023-02-09T01:32:43.292Z,27.97
2023-02-09T01:35:10.930Z,29.80
2023-02-09T01:37:37.801Z,32.00
2023-02-09T01:40:05.220Z,32.20
2023-02-09T01:42:32.281Z,26.93
2023-02-09T01:45:06.122Z,31.23
2023-02-09T01:47:37.038Z,33.30
2023-02-09T01:50:04.085Z,35.77
2023-02-09T01:52:31.383Z,31.63
2023-02-09T01:55:10.745Z,35.63
2023-02-09T01:57:42.917Z,31.33
2023-02-09T02:00:18.083Z,37.27
2023-02-09T02:02:57.668Z,33.37
2023-02-09T02:05:26.323Z,31.33
2023-02-09T02:08:02.774Z,37.47
2023-02-09T02:10:30.659Z,34.20
2023-02-09T02:12:59.537Z,33.20
2023-02-09T02:15:31.083Z,31.30
2023-02-09T02:18:10.916Z,32.37
2023-02-09T02:20:58.748Z,37.30
2023-02-09T02:23:41.044Z,34.03
2023-02-09T02:26:38.861Z,32.53
2023-02-09T02:29:43.398Z,29.57
2023-02-09T02:32:17.935Z,31.07
2023-02-09T02:34:58.091Z,34.90
2023-02-09T02:37:32.878Z,32.67
2023-02-09T02:40:23.891Z,30.40
2023-02-09T02:43:09.444Z,36.93
2023-02-09T02:45:44.052Z,31.67
2023-02-09T02:48:19.080Z,32.07
2023-02-09T02:50:59.615Z,31.17
2023-02-09T02:53:30.113Z,31.43
2023-02-09T02:56:03.152Z,30.70
2023-02-09T02:58:31.094Z,34.00
2023-02-09T03:01:03.933Z,33.40
2023-02-09T03:03:34.178Z,30.07
2023-02-09T03:06:04.851Z,30.47
2023-02-09T03:08:55.798Z,31.03
2023-02-09T03:11:26.707Z,31.80
2023-02-09T03:14:06.170Z,28.47
2023-02-09T03:17:28.354Z,31.13
2023-02-09T03:20:08.303Z,28.87
2023-02-09T03:22:45.481Z,34.13
2023-02-09T03:25:23.814Z,30.33
2023-02-09T03:28:10.041Z,27.87
2023-02-09T03:30:40.942Z,33.80
2023-02-09T03:33:22.539Z,31.10
2023-02-09T03:35:52.130Z,31.13
2023-02-09T03:38:19.083Z,33.87
2023-02-09T03:40:46.045Z,30.47
2023-02-09T03:43:13.223Z,28.73
2023-02-09T03:45:40.132Z,31.27
2023-02-09T03:48:07.441Z,28.87
2023-02-09T03:50:35.728Z,26.10
2023-02-09T03:53:06.534Z,25.07
2023-02-09T03:55:35.875Z,26.73
2023-02-09T03:58:02.682Z,26.00
2023-02-09T04:00:29.516Z,26.60
2023-02-09T04:02:56.738Z,26.20
2023-02-09T04:05:24.652Z,22.73
2023-02-09T04:07:51.486Z,30.37
2023-02-09T04:10:19.011Z,27.03
2023-02-09T04:12:46.062Z,20.50
2023-02-09T04:15:12.874Z,22.63
2023-02-09T04:17:39.787Z,24.07
2023-02-09T04:20:07.299Z,24.90
2023-02-09T04:22:34.136Z,23.13
2023-02-09T04:25:00.940Z,21.13
2023-02-09T04:27:28.418Z,23.27
2023-02-09T04:29:55.200Z,22.17
2023-02-09T04:32:22.011Z,23.50
2023-02-09T04:34:49.914Z,25.00
2023-02-09T04:37:16.762Z,25.70
2023-02-09T04:39:43.562Z,24.93
2023-02-09T04:42:10.327Z,23.80
2023-02-09T04:44:37.148Z,25.30
2023-02-09T04:47:03.965Z,27.47
2023-02-09T04:49:30.812Z,21.27
2023-02-09T04:51:57.603Z,23.93
2023-02-09T04:54:24.292Z,19.63
2023-02-09T04:57:11.032Z,19.97
2023-02-09T04:59:40.933Z,23.50
2023-02-09T05:02:08.250Z,21.27
2023-02-09T05:04:35.047Z,21.90
2023-02-09T05:07:02.254Z,22.13
2023-02-09T05:09:29.227Z,23.07
2023-02-09T05:11:56.100Z,22.83
2023-02-09T05:14:22.811Z,20.57
2023-02-09T05:16:49.897Z,21.90
2023-02-09T05:19:16.775Z,22.57
2023-02-09T05:21:43.556Z,22.80
2023-02-09T05:24:10.301Z,17.87
2023-02-09T05:26:39.152Z,21.33
2023-02-09T05:29:05.908Z,23.57
2023-02-09T05:31:37.521Z,19.77
2023-02-09T05:34:04.349Z,21.43
2023-02-09T05:36:31.087Z,21.23
2023-02-09T05:38:57.861Z,20.90
2023-02-09T05:41:44.165Z,19.47
2023-02-09T05:44:10.929Z,20.00
2023-02-09T05:46:39.379Z,20.10
2023-02-09T05:49:06.116Z,24.13
2023-02-09T05:51:33.861Z,27.67
2023-02-09T05:54:00.821Z,23.30
2023-02-09T05:56:27.656Z,21.43
2023-02-09T05:58:54.885Z,21.83
2023-02-09T06:01:21.891Z,23.60
2023-02-09T06:03:48.677Z,22.17
2023-02-09T06:06:15.430Z,22.47
2023-02-09T06:08:42.244Z,22.20
2023-02-09T06:11:08.974Z,23.83
2023-02-09T06:13:35.974Z,23.30
2023-02-09T06:16:02.801Z,28.27
2023-02-09T06:18:29.640Z,24.53
2023-02-09T06:20:56.466Z,24.10
2023-02-09T06:23:23.242Z,25.00
2023-02-09T06:25:53.100Z,21.57
2023-02-09T06:28:20.873Z,24.00
2023-02-09T06:30:51.479Z,24.87
2023-02-09T06:33:19.959Z,24.97
2023-02-09T06:35:46.898Z,23.37
2023-02-09T06:38:13.718Z,24.60
2023-02-09T06:40:40.467Z,23.20
2023-02-09T06:43:07.256Z,24.60
2023-02-09T06:45:34.083Z,23.63
2023-02-09T06:48:00.809Z,22.63
2023-02-09T06:50:28.068Z,23.37
2023-02-09T06:52:56.886Z,23.40
2023-02-09T06:55:23.732Z,22.63
2023-02-09T06:57:51.176Z,25.43
2023-02-09T07:00:18.401Z,22.50
2023-02-09T07:02:46.149Z,20.67
2023-02-09T07:05:14.750Z,24.63
2023-02-09T07:07:42.525Z,23.47
2023-02-09T07:10:10.571Z,26.57
2023-02-09T07:12:38.437Z,23.50
2023-02-09T07:15:08.144Z,24.60
2023-02-09T07:17:34.974Z,25.63
2023-02-09T07:20:03.875Z,25.30
2023-02-09T07:22:30.955Z,27.17
2023-02-09T07:24:58.021Z,25.93
2023-02-09T07:27:25.749Z,26.47
2023-02-09T07:29:52.555Z,26.77
2023-02-09T07:32:19.423Z,26.47
2023-02-09T07:34:46.547Z,27.37
2023-02-09T07:37:13.917Z,25.93
2023-02-09T07:39:43.379Z,28.20
2023-02-09T07:42:10.307Z,26.07
2023-02-09T07:44:37.024Z,21.27
2023-02-09T07:47:03.981Z,24.93
2023-02-09T07:49:30.746Z,24.17
2023-02-09T07:51:59.820Z,29.30
2023-02-09T07:54:26.891Z,26.77
2023-02-09T07:56:56.801Z,23.43
2023-02-09T07:59:23.744Z,25.47
2023-02-09T08:01:51.548Z,26.80
2023-02-09T08:04:18.454Z,23.63
2023-02-09T08:06:46.394Z,22.10
2023-02-09T08:09:15.194Z,21.93
2023-02-09T08:11:58.653Z,23.70
2023-02-09T08:14:39.645Z,27.40
2023-02-09T08:17:27.912Z,23.53
2023-02-09T08:20:03.805Z,23.13
2023-02-09T08:22:35.162Z,20.77
2023-02-09T08:25:03.729Z,25.63
2023-02-09T08:27:32.021Z,26.10
2023-02-09T08:30:00.384Z,23.30
2023-02-09T08:32:28.289Z,28.83
2023-02-09T08:34:55.026Z,20.27
2023-02-09T08:37:21.746Z,21.53
2023-02-09T08:39:52.814Z,25.90
2023-02-09T08:42:19.610Z,22.60
2023-02-09T08:44:46.789Z,22.90
2023-02-09T08:47:13.614Z,19.83
2023-02-09T08:49:41.622Z,20.83
2023-02-09T08:52:08.395Z,24.70
2023-02-09T08:54:35.999Z,19.83
2023-02-09T08:57:02.787Z,19.13
2023-02-09T08:59:29.653Z,15.40
2023-02-09T09:02:09.230Z,23.77
2023-02-09T09:04:46.212Z,23.63
2023-02-09T09:07:13.231Z,20.70
2023-02-09T09:09:40.263Z,19.33
2023-02-09T09:12:07.357Z,22.97
2023-02-09T09:14:35.276Z,20.87
2023-02-09T09:17:02.068Z,22.17
2023-02-09T09:19:29.265Z,20.97
2023-02-09T09:21:58.649Z,21.53
2023-02-09T09:24:29.264Z,21.17
2023-02-09T09:26:56.693Z,20.23
2023-02-09T09:29:23.754Z,21.47
2023-02-09T09:31:50.665Z,20.40
2023-02-09T09:34:17.467Z,20.13
2023-02-09T09:36:44.187Z,24.13
2023-02-09T09:39:10.978Z,16.80
2023-02-09T09:41:38.595Z,22.53
2023-02-09T09:44:15.475Z,20.40
2023-02-09T09:46:46.030Z,18.63
2023-02-09T09:49:26.310Z,15.80
2023-02-09T09:52:05.944Z,21.33
2023-02-09T09:54:35.881Z,21.43
2023-02-09T09:57:03.409Z,20.23
2023-02-09T09:59:38.812Z,19.97
2023-02-09T10:02:32.757Z,16.63
2023-02-09T10:05:22.662Z,18.23
2023-02-09T10:08:08.658Z,15.30
2023-02-09T10:10:46.016Z,18.47
2023-02-09T10:13:36.338Z,16.53
2023-02-09T10:16:04.918Z,15.20
2023-02-09T10:18:36.214Z,14.27
2023-02-09T10:21:08.835Z,13.17
2023-02-09T10:23:47.532Z,12.90
2023-02-09T10:26:42.899Z,10.90
2023-02-09T10:29:12.748Z,11.00
2023-02-09T10:31:43.367Z,12.73
2023-02-09T10:34:31.400Z,8.83
2023-02-09T10:37:18.660Z,11.77
2023-02-09T10:39:52.940Z,9.73
2023-02-09T10:42:24.269Z,12.07
2023-02-09T10:44:54.783Z,9.03
2023-02-09T10:47:23.670Z,8.10
2023-02-09T10:50:00.988Z,9.80
2023-02-09T10:52:35.773Z,11.13
2023-02-09T10:55:14.781Z,8.87
2023-02-09T10:57:42.101Z,11.20
2023-02-09T11:00:19.403Z,8.07
2023-02-09T11:02:52.233Z,5.03
2023-02-09T11:05:21.993Z,11.03
2023-02-09T11:08:03.733Z,9.50
2023-02-09T11:10:35.379Z,13.60
2023-02-09T11:13:02.899Z,10.33
2023-02-09T11:15:40.533Z,7.17
2023-02-09T11:18:17.073Z,9.70
2023-02-09T11:21:03.382Z,12.40
2023-02-09T11:23:54.242Z,7.10
2023-02-09T11:26:51.487Z,8.17
2023-02-09T11:29:35.711Z,8.43
2023-02-09T11:32:16.971Z,5.83
2023-02-09T11:34:55.183Z,7.80
2023-02-09T11:37:21.906Z,8.53
2023-02-09T11:40:01.839Z,6.93
2023-02-09T11:42:46.794Z,10.43
2023-02-09T11:45:44.534Z,9.63
2023-02-09T11:48:14.386Z,7.53
2023-02-09T11:51:01.965Z,6.23
2023-02-09T11:53:50.000Z,13.60
2023-02-09T11:56:20.270Z,13.37
2023-02-09T11:58:51.551Z,8.90
2023-02-09T12:01:49.077Z,4.83
2023-02-09T12:04:24.818Z,9.80
2023-02-09T12:06:56.023Z,11.77
2023-02-09T12:09:31.753Z,7.43
2023-02-09T12:12:08.076Z,9.50
2023-02-09T12:14:53.892Z,8.03
2023-02-09T12:17:46.482Z,8.67
2023-02-09T12:20:25.465Z,10.43
2023-02-09T12:23:18.014Z,5.20
2023-02-09T12:25:51.780Z,5.47
2023-02-09T12:28:27.501Z,6.00
2023-02-09T12:30:54.832Z,8.80
2023-02-09T12:33:24.553Z,7.13
2023-02-09T12:36:09.828Z,8.00
2023-02-09T12:39:04.644Z,7.63
2023-02-09T12:41:34.739Z,9.97
2023-02-09T12:44:10.687Z,7.63
2023-02-09T12:46:57.837Z,9.53
2023-02-09T12:49:27.449Z,9.20
2023-02-09T12:52:12.800Z,13.63
2023-02-09T12:54:41.980Z,7.77
2023-02-09T12:57:15.081Z,9.53
2023-02-09T12:59:55.279Z,8.47
2023-02-09T13:02:48.336Z,17.30
2023-02-09T13:05:39.728Z,8.37
2023-02-09T13:08:18.475Z,11.60
2023-02-09T13:11:11.243Z,7.23
2023-02-09T13:13:44.273Z,7.47
2023-02-09T13:16:29.763Z,9.47
2023-02-09T13:19:11.970Z,9.20
2023-02-09T13:21:53.535Z,10.53
2023-02-09T13:24:34.052Z,8.03
2023-02-09T13:27:01.276Z,8.30
2023-02-09T13:29:30.434Z,12.37
2023-02-09T13:32:15.724Z,7.97
2023-02-09T13:35:04.575Z,6.20
2023-02-09T13:37:54.341Z,7.00
2023-02-09T13:40:31.574Z,13.03
2023-02-09T13:43:07.084Z,7.80
2023-02-09T13:45:33.890Z,8.27
2023-02-09T13:48:02.767Z,7.83
2023-02-09T13:50:30.284Z,8.47
2023-02-09T13:53:10.390Z,8.27
2023-02-09T13:55:39.973Z,7.10
2023-02-09T13:58:14.308Z,8.47
2023-02-09T14:00:44.642Z,7.93
2023-02-09T14:03:57.539Z,5.70
2023-02-09T14:06:25.112Z,11.27
2023-02-09T14:08:53.467Z,8.70
2023-02-09T14:11:43.001Z,9.37
2023-02-09T14:14:22.211Z,8.43
2023-02-09T14:17:22.972Z,6.53
2023-02-09T14:19:52.379Z,6.23
2023-02-09T14:22:40.018Z,7.13
2023-02-09T14:25:28.768Z,12.93
2023-02-09T14:27:56.581Z,6.23
2023-02-09T14:30:32.046Z,7.33
2023-02-09T14:33:03.578Z,7.87
2023-02-09T14:35:38.814Z,6.63
2023-02-09T14:38:06.039Z,8.77
2023-02-09T14:40:37.187Z,6.77
2023-02-09T14:43:13.643Z,7.03
2023-02-09T14:45:46.880Z,6.90
2023-02-09T14:48:21.721Z,8.83
2023-02-09T14:50:50.798Z,7.90
2023-02-09T14:53:18.763Z,8.87
2023-02-09T14:55:45.963Z,8.00
2023-02-09T14:58:23.477Z,4.80
2023-02-09T15:00:51.791Z,9.23
2023-02-09T15:03:19.231Z,11.00
2023-02-09T15:05:48.816Z,6.30
2023-02-09T15:08:20.001Z,5.10
2023-02-09T15:11:03.053Z,7.53
2023-02-09T15:13:31.257Z,6.83
2023-02-09T15:15:58.544Z,7.13
2023-02-09T15:18:26.960Z,7.17
2023-02-09T15:20:54.012Z,8.90
2023-02-09T15:23:20.830Z,10.33
2023-02-09T15:25:48.306Z,12.77
2023-02-09T15:28:28.114Z,9.70
2023-02-09T15:30:56.901Z,10.43
2023-02-09T15:33:25.872Z,10.73
2023-02-09T15:35:53.132Z,10.27
2023-02-09T15:38:20.563Z,9.10
2023-02-09T15:41:07.916Z,9.47
2023-02-09T15:43:53.871Z,9.00
2023-02-09T15:46:40.365Z,8.23
2023-02-09T15:49:07.616Z,8.93
2023-02-09T15:51:37.061Z,9.17
2023-02-09T15:54:09.198Z,6.63
2023-02-09T15:56:36.764Z,6.87
2023-02-09T15:59:05.492Z,8.30
2023-02-09T16:01:35.874Z,7.80
2023-02-09T16:04:13.743Z,11.83
2023-02-09T16:06:48.499Z,8.93
2023-02-09T16:09:19.404Z,10.07
2023-02-09T16:11:48.279Z,6.33
2023-02-09T16:14:22.159Z,5.57
2023-02-09T16:16:50.038Z,11.07
2023-02-09T16:19:17.683Z,7.87
2023-02-09T16:21:49.902Z,11.40
2023-02-09T16:24:28.679Z,11.03
2023-02-09T16:26:55.880Z,10.00
2023-02-09T16:29:25.845Z,6.97
2023-02-09T16:31:55.736Z,9.07
2023-02-09T16:34:22.648Z,8.47
2023-02-09T16:36:50.019Z,9.93
2023-02-09T16:39:21.676Z,9.50
2023-02-09T16:41:50.829Z,7.87
2023-02-09T16:44:23.275Z,9.77
2023-02-09T16:46:57.889Z,11.73
2023-02-09T16:49:39.560Z,9.13
2023-02-09T16:52:20.460Z,11.07
2023-02-09T16:54:50.189Z,13.50
2023-02-09T16:57:18.998Z,8.60
2023-02-09T16:59:46.197Z,14.27
2023-02-09T17:02:37.769Z,8.07
2023-02-09T17:05:29.308Z,13.77
2023-02-09T17:08:20.141Z,17.67
2023-02-09T17:10:48.994Z,15.13
2023-02-09T17:13:22.031Z,10.20
2023-02-09T17:16:01.312Z,15.30
2023-02-09T17:18:34.873Z,12.47
2023-02-09T17:21:09.869Z,18.43
2023-02-09T17:23:37.052Z,17.17
2023-02-09T17:26:04.343Z,15.10
2023-02-09T17:28:31.428Z,15.60
2023-02-09T17:31:01.210Z,13.13
2023-02-09T17:33:36.184Z,15.87
2023-02-09T17:36:25.087Z,11.90
2023-02-09T17:38:51.461Z,11.93
2023-02-09T17:41:33.651Z,12.17
2023-02-09T17:44:22.247Z,12.80
2023-02-09T17:46:53.921Z,14.83
2023-02-09T17:49:20.748Z,12.57
2023-02-09T17:51:49.018Z,16.83
2023-02-09T17:54:19.643Z,11.07
2023-02-09T17:56:46.821Z,14.03
2023-02-09T17:59:14.836Z,13.00
2023-02-09T18:01:46.855Z,14.67
2023-02-09T18:04:19.385Z,9.30
2023-02-09T18:06:46.242Z,11.83
2023-02-09T18:09:16.434Z,14.93
2023-02-09T18:11:52.380Z,14.27
2023-02-09T18:14:21.242Z,14.23
2023-02-09T18:16:49.117Z,14.77
2023-02-09T18:19:16.911Z,16.20
2023-02-09T18:21:51.121Z,22.33
2023-02-09T18:24:21.266Z,14.63
2023-02-09T18:26:49.907Z,13.10
2023-02-09T18:29:17.889Z,12.60
2023-02-09T18:31:44.721Z,15.30
2023-02-09T18:34:11.478Z,10.27
2023-02-09T18:36:38.351Z,14.57
2023-02-09T18:39:05.617Z,12.27
2023-02-09T18:41:32.592Z,11.50
2023-02-09T18:43:59.390Z,14.30
2023-02-09T18:46:27.090Z,11.33
2023-02-09T18:48:54.731Z,13.60
2023-02-09T18:51:22.142Z,14.27
2023-02-09T18:53:52.057Z,13.17
2023-02-09T18:56:20.926Z,10.10
2023-02-09T18:58:51.277Z,9.20
2023-02-09T19:01:22.015Z,11.03
2023-02-09T19:03:50.455Z,11.03
2023-02-09T19:06:17.771Z,8.17
2023-02-09T19:08:44.651Z,11.83
2023-02-09T19:11:16.794Z,11.23
2023-02-09T19:14:03.934Z,10.07
2023-02-09T19:16:33.234Z,9.80
2023-02-09T19:19:00.820Z,15.33
2023-02-09T19:21:28.738Z,17.33
2023-02-09T19:23:55.752Z,12.10
2023-02-09T19:26:22.959Z,12.40
2023-02-09T19:28:50.787Z,13.33
2023-02-09T19:31:18.500Z,13.37
2023-02-09T19:33:45.348Z,11.00
2023-02-09T19:36:13.319Z,8.30
2023-02-09T19:38:40.136Z,10.10
2023-02-09T19:41:11.855Z,12.43
2023-02-09T19:43:39.590Z,16.67
2023-02-09T19:46:07.276Z,12.27
2023-02-09T19:48:34.106Z,10.00
2023-02-09T19:51:02.075Z,9.00
2023-02-09T19:53:28.927Z,10.00
2023-02-09T19:55:56.464Z,13.53
2023-02-09T19:58:23.629Z,11.27
2023-02-09T20:00:51.676Z,9.90
2023-02-09T20:03:18.995Z,7.00
2023-02-09T20:05:46.551Z,9.97
2023-02-09T20:08:17.237Z,9.60
2023-02-09T20:10:44.518Z,9.30
2023-02-09T20:13:13.440Z,11.03
2023-02-09T20:15:43.586Z,9.63
2023-02-09T20:18:12.173Z,10.50
2023-02-09T20:20:41.703Z,8.87
2023-02-09T20:23:09.486Z,10.73
2023-02-09T20:25:38.682Z,15.00
2023-02-09T20:28:05.556Z,15.50
2023-02-09T20:30:32.406Z,12.43
2023-02-09T20:32:59.173Z,8.00
2023-02-09T20:35:27.042Z,10.03
2023-02-09T20:37:56.731Z,10.30
2023-02-09T20:40:24.293Z,12.07
2023-02-09T20:43:09.567Z,12.00
2023-02-09T20:45:54.928Z,13.27
2023-02-09T20:48:21.798Z,10.70
2023-02-09T20:50:49.004Z,13.97
2023-02-09T20:53:17.610Z,12.30
2023-02-09T20:55:44.507Z,11.43
2023-02-09T20:58:13.662Z,9.60
2023-02-09T21:00:42.594Z,9.80
2023-02-09T21:03:11.100Z,18.53
2023-02-09T21:05:39.210Z,14.33
2023-02-09T21:08:09.004Z,13.17
2023-02-09T21:10:38.377Z,12.93
2023-02-09T21:13:06.789Z,17.43
2023-02-09T21:15:36.040Z,13.70
2023-02-09T21:18:03.017Z,16.67
2023-02-09T21:20:32.188Z,10.07
2023-02-09T21:23:00.584Z,14.97
2023-02-09T21:25:27.786Z,13.03
2023-02-09T21:27:59.262Z,13.23
2023-02-09T21:30:28.484Z,15.87
2023-02-09T21:32:56.143Z,11.80
2023-02-09T21:35:23.329Z,10.23
2023-02-09T21:37:50.172Z,14.83
2023-02-09T21:40:17.173Z,15.93
2023-02-09T21:42:45.377Z,12.50
2023-02-09T21:45:13.175Z,13.00
2023-02-09T21:47:40.391Z,14.37
2023-02-09T21:50:10.722Z,18.87
2023-02-09T21:52:38.829Z,14.57
2023-02-09T21:55:05.986Z,16.30
2023-02-09T21:57:32.770Z,17.60
2023-02-09T22:00:04.485Z,13.13
2023-02-09T22:02:33.691Z,19.30
2023-02-09T22:05:00.559Z,14.80
2023-02-09T22:07:27.916Z,17.00
2023-02-09T22:09:54.773Z,14.73
2023-02-09T22:12:21.793Z,16.50
2023-02-09T22:14:48.749Z,12.57
2023-02-09T22:17:17.057Z,14.40
2023-02-09T22:19:43.969Z,14.60
2023-02-09T22:22:11.334Z,11.20
2023-02-09T22:24:38.608Z,12.87
2023-02-09T22:27:08.406Z,13.80
2023-02-09T22:29:35.714Z,13.13
2023-02-09T22:32:02.681Z,12.50
2023-02-09T22:34:29.645Z,14.30
2023-02-09T22:36:57.525Z,13.40
2023-02-09T22:39:24.322Z,17.40
2023-02-09T22:41:51.198Z,17.10
2023-02-09T22:44:20.710Z,13.63
2023-02-09T22:46:47.543Z,26.83
2023-02-09T22:49:19.924Z,20.17
2023-02-09T22:51:48.707Z,15.00
2023-02-09T22:54:17.211Z,14.20
2023-02-09T22:56:45.748Z,17.37
2023-02-09T22:59:14.090Z,14.80
2023-02-09T23:01:41.213Z,18.47
2023-02-09T23:04:09.965Z,11.33
2023-02-09T23:06:36.977Z,12.63
2023-02-09T23:09:08.247Z,12.43
2023-02-09T23:11:35.810Z,10.33
2023-02-09T23:14:11.139Z,12.57
2023-02-09T23:16:41.891Z,14.87
2023-02-09T23:19:14.195Z,14.77
2023-02-09T23:21:43.762Z,9.13
2023-02-09T23:24:12.020Z,10.00
2023-02-09T23:26:39.702Z,11.73
2023-02-09T23:29:09.407Z,11.33
2023-02-09T23:31:38.210Z,11.47
2023-02-09T23:34:04.975Z,9.67
2023-02-09T23:36:33.691Z,11.40
2023-02-09T23:39:03.434Z,12.00
2023-02-09T23:41:30.321Z,16.03
2023-02-09T23:43:57.397Z,15.40
2023-02-09T23:46:28.416Z,11.73
2023-02-09T23:48:56.412Z,14.60
2023-02-09T23:51:26.956Z,14.87
2023-02-09T23:53:55.410Z,11.57
2023-02-09T23:56:22.921Z,11.60
2023-02-09T23:58:52.270Z,13.60
